createdAt,value
2022-11-09T00:01:34.934Z,100.00
2022-11-09T00:04:05.020Z,100.00
2022-11-09T00:06:33.962Z,100.00
2022-11-09T00:09:07.455Z,100.00
2022-11-09T00:11:38.789Z,100.00
2022-11-09T00:14:06.966Z,100.00
2022-11-09T00:16:35.052Z,100.00
2022-11-09T00:19:02.999Z,100.00
2022-11-09T00:21:31.000Z,100.00
2022-11-09T00:23:59.116Z,100.00
2022-11-09T00:26:27.852Z,100.00
2022-11-09T00:28:57.287Z,100.00
2022-11-09T00:31:26.149Z,100.00
2022-11-09T00:33:55.702Z,100.00
2022-11-09T00:36:25.327Z,100.00
2022-11-09T00:38:54.953Z,100.00
2022-11-09T00:41:23.555Z,100.00
2022-11-09T00:43:52.167Z,100.00
2022-11-09T00:46:21.907Z,100.00
2022-11-09T00:48:52.220Z,100.00
2022-11-09T00:51:20.232Z,100.00
2022-11-09T00:53:49.223Z,100.00
2022-11-09T00:56:17.258Z,100.00
2022-11-09T00:58:45.324Z,100.00
2022-11-09T01:01:15.487Z,100.00
2022-11-09T01:03:46.664Z,100.00
2022-11-09T01:06:17.097Z,100.00
2022-11-09T01:08:46.109Z,100.00
2022-11-09T01:11:16.826Z,100.00
2022-11-09T01:13:45.515Z,100.00
2022-11-09T01:16:15.809Z,100.00
2022-11-09T01:18:45.461Z,100.00
2022-11-09T01:21:15.759Z,100.00
2022-11-09T01:23:43.914Z,100.00
2022-11-09T01:26:13.990Z,100.00
2022-11-09T01:28:42.402Z,100.00
2022-11-09T01:31:13.235Z,100.00
2022-11-09T01:33:41.927Z,100.00
2022-11-09T01:36:13.157Z,100.00
2022-11-09T01:38:41.691Z,100.00
2022-11-09T01:41:13.295Z,100.00
2022-11-09T01:43:41.747Z,100.00
2022-11-09T01:46:19.743Z,100.00
2022-11-09T01:48:51.092Z,100.00
2022-11-09T01:51:27.089Z,100.00
2022-11-09T01:54:00.227Z,100.00
2022-11-09T01:56:30.472Z,100.00
2022-11-09T01:59:02.822Z,100.00
2022-11-09T02:01:33.056Z,100.00
2022-11-09T02:04:06.723Z,100.00
2022-11-09T02:06:36.918Z,100.00
2022-11-09T02:09:11.704Z,100.00
2022-11-09T02:11:39.984Z,100.00
2022-11-09T02:14:08.837Z,100.00
2022-11-09T02:16:37.933Z,100.00
2022-11-09T02:19:06.519Z,100.00
2022-11-09T02:21:36.062Z,100.00
2022-11-09T02:24:04.049Z,100.00
2022-11-09T02:26:39.816Z,100.00
2022-11-09T02:29:11.236Z,100.00
2022-11-09T02:31:44.462Z,100.00
2022-11-09T02:34:15.827Z,100.00
2022-11-09T02:36:45.451Z,100.00
2022-11-09T02:39:23.110Z,100.00
2022-11-09T02:41:56.670Z,100.00
2022-11-09T02:44:31.279Z,100.00
2022-11-09T02:46:59.358Z,100.00
2022-11-09T02:49:28.656Z,100.00
2022-11-09T02:51:57.985Z,100.00
2022-11-09T02:54:26.073Z,100.00
2022-11-09T02:56:55.472Z,100.00
2022-11-09T02:59:23.958Z,100.00
2022-11-09T03:01:52.100Z,100.00
2022-11-09T03:04:20.239Z,100.00
2022-11-09T03:06:48.414Z,100.00
2022-11-09T03:09:20.692Z,100.00
2022-11-09T03:11:49.608Z,100.00
2022-11-09T03:14:18.391Z,100.00
2022-11-09T03:16:53.919Z,100.00
2022-11-09T03:19:22.612Z,100.00
2022-11-09T03:21:52.863Z,100.00
2022-11-09T03:24:25.683Z,100.00
2022-11-09T03:26:57.530Z,100.00
2022-11-09T03:29:25.523Z,100.00
2022-11-09T03:31:53.527Z,100.00
2022-11-09T03:34:21.468Z,100.00
2022-11-09T03:36:49.576Z,100.00
2022-11-09T03:39:18.028Z,100.00
2022-11-09T03:41:47.403Z,100.00
2022-11-09T03:44:15.347Z,100.00
2022-11-09T03:46:43.311Z,100.00
2022-11-09T03:49:11.714Z,100.00
2022-11-09T03:51:39.677Z,100.00
2022-11-09T03:54:08.820Z,100.00
2022-11-09T03:56:36.762Z,100.00
2022-11-09T03:59:06.345Z,100.00
2022-11-09T04:01:34.655Z,100.00
2022-11-09T04:04:02.606Z,100.00
2022-11-09T04:06:30.705Z,100.00
2022-11-09T04:08:58.675Z,100.00
2022-11-09T04:11:26.605Z,100.00
2022-11-09T04:13:54.736Z,100.00
2022-11-09T04:16:24.076Z,100.00
2022-11-09T04:18:52.051Z,100.00
2022-11-09T04:21:24.085Z,100.00
2022-11-09T04:23:52.395Z,100.00
2022-11-09T04:26:20.369Z,100.00
2022-11-09T04:28:48.437Z,100.00
2022-11-09T04:31:16.433Z,100.00
2022-11-09T04:33:50.730Z,100.00
2022-11-09T04:36:19.161Z,100.00
2022-11-09T04:38:47.139Z,100.00
2022-11-09T04:41:15.356Z,100.00
2022-11-09T04:43:43.705Z,100.00
2022-11-09T04:46:11.784Z,100.00
2022-11-09T04:48:39.842Z,100.00
2022-11-09T04:51:11.491Z,100.00
2022-11-09T04:53:40.092Z,100.00
2022-11-09T04:56:09.477Z,100.00
2022-11-09T04:58:37.496Z,100.00
2022-11-09T05:01:07.965Z,100.00
2022-11-09T05:03:36.308Z,100.00
2022-11-09T05:06:25.290Z,100.00
2022-11-09T05:08:55.115Z,100.00
2022-11-09T05:11:23.678Z,100.00
2022-11-09T05:13:52.610Z,100.00
2022-11-09T05:16:21.010Z,100.00
2022-11-09T05:18:49.096Z,100.00
2022-11-09T05:21:17.399Z,100.00
2022-11-09T05:23:59.507Z,100.00
2022-11-09T05:26:31.300Z,100.00
2022-11-09T05:29:00.115Z,100.00
2022-11-09T05:31:28.902Z,100.00
2022-11-09T05:33:57.888Z,100.00
2022-11-09T05:36:27.797Z,100.00
2022-11-09T05:38:55.837Z,100.00
2022-11-09T05:41:29.201Z,100.00
2022-11-09T05:43:57.317Z,100.00
2022-11-09T05:46:26.273Z,100.00
2022-11-09T05:48:54.264Z,100.00
2022-11-09T05:51:22.238Z,100.00
2022-11-09T05:53:50.956Z,100.00
2022-11-09T05:56:18.929Z,100.00
2022-11-09T05:58:48.403Z,100.00
2022-11-09T06:01:19.057Z,100.00
2022-11-09T06:03:47.607Z,100.00
2022-11-09T06:06:17.728Z,100.00
2022-11-09T06:08:45.722Z,100.00
2022-11-09T06:11:21.530Z,100.00
2022-11-09T06:13:53.166Z,100.00
2022-11-09T06:16:21.224Z,100.00
2022-11-09T06:18:49.189Z,100.00
2022-11-09T06:21:17.326Z,100.00
2022-11-09T06:23:45.390Z,100.00
2022-11-09T06:26:13.986Z,100.00
2022-11-09T06:28:43.111Z,100.00
2022-11-09T06:31:14.329Z,100.00
2022-11-09T06:33:42.914Z,100.00
2022-11-09T06:36:11.935Z,100.00
2022-11-09T06:38:40.375Z,100.00
2022-11-09T06:41:08.437Z,100.00
2022-11-09T06:43:36.724Z,100.00
2022-11-09T06:46:05.990Z,100.00
2022-11-09T06:48:35.539Z,100.00
2022-11-09T06:51:05.041Z,100.00
2022-11-09T06:53:33.466Z,100.00
2022-11-09T06:56:02.944Z,100.00
2022-11-09T06:58:31.643Z,100.00
2022-11-09T07:01:00.012Z,100.00
2022-11-09T07:03:28.129Z,100.00
2022-11-09T07:05:59.946Z,100.00
2022-11-09T07:08:27.941Z,100.00
2022-11-09T07:10:55.970Z,100.00
2022-11-09T07:13:24.172Z,100.00
2022-11-09T07:15:55.488Z,100.00
2022-11-09T07:18:23.793Z,100.00
2022-11-09T07:20:52.045Z,100.00
2022-11-09T07:23:21.958Z,100.00
2022-11-09T07:25:51.231Z,100.00
2022-11-09T07:28:19.921Z,100.00
2022-11-09T07:30:50.411Z,100.00
2022-11-09T07:33:19.201Z,100.00
2022-11-09T07:35:47.900Z,100.00
2022-11-09T07:38:16.923Z,100.00
2022-11-09T07:40:46.938Z,100.00
2022-11-09T07:43:15.911Z,100.00
2022-11-09T07:45:44.198Z,100.00
2022-11-09T07:48:12.985Z,100.00
2022-11-09T07:50:42.120Z,100.00
2022-11-09T07:53:12.263Z,100.00
2022-11-09T07:55:40.661Z,100.00
2022-11-09T07:58:12.867Z,100.00
2022-11-09T08:00:43.080Z,100.00
2022-11-09T08:03:11.387Z,100.00
2022-11-09T08:05:40.506Z,100.00
2022-11-09T08:08:11.436Z,100.00
2022-11-09T08:10:40.190Z,100.00
2022-11-09T08:13:11.812Z,100.00
2022-11-09T08:15:40.564Z,100.00
2022-11-09T08:18:11.474Z,100.00
2022-11-09T08:20:39.562Z,100.00
2022-11-09T08:23:07.760Z,100.00
2022-11-09T08:25:36.584Z,100.00
2022-11-09T08:28:04.965Z,100.00
2022-11-09T08:30:34.877Z,100.00
2022-11-09T08:33:04.191Z,100.00
2022-11-09T08:35:32.319Z,100.00
2022-11-09T08:38:03.708Z,100.00
2022-11-09T08:40:33.191Z,100.00
2022-11-09T08:43:06.341Z,100.00
2022-11-09T08:45:37.804Z,100.00
2022-11-09T08:48:09.050Z,100.00
2022-11-09T08:50:37.969Z,100.00
2022-11-09T08:53:07.956Z,100.00
2022-11-09T08:55:36.173Z,100.00
2022-11-09T08:58:05.557Z,100.00
2022-11-09T09:00:35.022Z,100.00
2022-11-09T09:03:05.184Z,100.00
2022-11-09T09:05:33.383Z,100.00
2022-11-09T09:08:01.875Z,100.00
2022-11-09T09:10:30.230Z,100.00
2022-11-09T09:12:58.253Z,100.00
2022-11-09T09:15:26.684Z,100.00
2022-11-09T09:17:55.970Z,100.00
2022-11-09T09:20:23.918Z,100.00
2022-11-09T09:22:51.957Z,100.00
2022-11-09T09:25:20.031Z,100.00
2022-11-09T09:27:48.683Z,100.00
2022-11-09T09:30:16.941Z,100.00
2022-11-09T09:32:45.113Z,100.00
2022-11-09T09:35:14.600Z,100.00
2022-11-09T09:37:43.934Z,100.00
2022-11-09T09:40:24.690Z,100.00
2022-11-09T09:42:55.841Z,100.00
2022-11-09T09:45:24.847Z,100.00
2022-11-09T09:47:58.770Z,100.00
2022-11-09T09:50:31.271Z,100.00
2022-11-09T09:53:24.114Z,100.00
2022-11-09T09:55:56.202Z,100.00
2022-11-09T09:58:27.558Z,100.00
2022-11-09T10:01:01.510Z,100.00
2022-11-09T10:03:29.752Z,100.00
2022-11-09T10:06:05.428Z,100.00
2022-11-09T10:08:45.318Z,100.00
2022-11-09T10:11:25.968Z,100.00
2022-11-09T10:14:16.333Z,100.00
2022-11-09T10:16:51.371Z,100.00
2022-11-09T10:19:40.113Z,100.00
2022-11-09T10:22:17.519Z,100.00
2022-11-09T10:25:17.132Z,100.00
2022-11-09T10:27:49.661Z,100.00
2022-11-09T10:30:20.942Z,100.00
2022-11-09T10:32:52.612Z,100.00
2022-11-09T10:35:23.142Z,100.00
2022-11-09T10:37:55.065Z,100.00
2022-11-09T10:40:26.366Z,100.00
2022-11-09T10:43:15.698Z,100.00
2022-11-09T10:46:05.524Z,100.00
2022-11-09T10:48:54.028Z,100.00
2022-11-09T10:51:42.561Z,100.00
2022-11-09T10:54:33.795Z,100.00
2022-11-09T10:57:21.178Z,100.00
2022-11-09T11:00:16.301Z,100.00
2022-11-09T11:03:15.868Z,100.00
2022-11-09T11:06:04.016Z,100.00
2022-11-09T11:08:52.402Z,100.00
2022-11-09T11:11:41.794Z,100.00
2022-11-09T11:14:33.149Z,100.00
2022-11-09T11:17:24.334Z,100.00
2022-11-09T11:20:31.366Z,100.00
2022-11-09T11:23:20.536Z,100.00
2022-11-09T11:26:29.016Z,100.00
2022-11-09T11:29:40.027Z,100.00
2022-11-09T11:32:27.098Z,100.00
2022-11-09T11:35:16.085Z,100.00
2022-11-09T11:38:19.680Z,100.00
2022-11-09T11:41:36.465Z,100.00
2022-11-09T11:44:59.445Z,98.68
2022-11-09T11:48:09.706Z,98.52
2022-11-09T11:51:03.315Z,100.00
2022-11-09T11:54:04.016Z,100.00
2022-11-09T11:57:04.959Z,99.01
2022-11-09T12:00:13.015Z,94.67
2022-11-09T12:03:28.278Z,98.10
2022-11-09T12:06:34.266Z,98.33
2022-11-09T12:09:45.108Z,94.25
2022-11-09T12:12:42.107Z,97.23
2022-11-09T12:15:42.611Z,92.71
2022-11-09T12:18:41.245Z,93.59
2022-11-09T12:21:37.374Z,93.52
2022-11-09T12:24:30.360Z,89.86
2022-11-09T12:27:38.481Z,91.33
2022-11-09T12:30:29.222Z,92.41
2022-11-09T12:33:32.257Z,91.60
2022-11-09T12:36:24.819Z,93.76
2022-11-09T12:39:18.714Z,91.02
2022-11-09T12:42:10.761Z,90.26
2022-11-09T12:45:05.266Z,90.32
2022-11-09T12:47:54.821Z,93.86
2022-11-09T12:50:43.793Z,88.91
2022-11-09T12:53:34.355Z,94.44
2022-11-09T12:56:25.343Z,86.40
2022-11-09T12:59:22.657Z,87.22
2022-11-09T13:02:22.847Z,88.06
2022-11-09T13:05:30.561Z,88.53
2022-11-09T13:08:24.519Z,86.87
2022-11-09T13:11:21.032Z,86.70
2022-11-09T13:14:35.653Z,86.39
2022-11-09T13:18:04.125Z,90.45
2022-11-09T13:20:55.981Z,87.09
2022-11-09T13:24:03.259Z,90.71
2022-11-09T13:26:58.542Z,93.17
2022-11-09T13:29:56.322Z,90.38
2022-11-09T13:33:26.532Z,92.58
2022-11-09T13:36:18.848Z,92.25
2022-11-09T13:39:30.089Z,92.66
2022-11-09T13:42:29.791Z,94.33
2022-11-09T13:45:34.013Z,93.87
2022-11-09T13:48:49.729Z,94.26
2022-11-09T13:51:46.093Z,100.00
2022-11-09T13:54:34.397Z,99.92
2022-11-09T13:57:24.941Z,100.00
2022-11-09T14:00:18.884Z,96.75
2022-11-09T14:03:18.715Z,88.45
2022-11-09T14:06:06.980Z,91.50
2022-11-09T14:08:53.749Z,87.95
2022-11-09T14:11:54.314Z,85.56
2022-11-09T14:15:18.297Z,87.41
2022-11-09T14:18:19.483Z,84.71
2022-11-09T14:21:25.631Z,90.82
2022-11-09T14:24:21.333Z,89.15
2022-11-09T14:27:16.934Z,88.98
2022-11-09T14:30:03.508Z,88.76
2022-11-09T14:32:52.027Z,92.08
2022-11-09T14:35:44.961Z,91.39
2022-11-09T14:38:36.292Z,90.77
2022-11-09T14:41:25.768Z,94.33
2022-11-09T14:44:21.327Z,92.38
2022-11-09T14:47:16.890Z,93.64
2022-11-09T14:50:06.335Z,91.01
2022-11-09T14:52:56.789Z,89.99
2022-11-09T14:55:46.101Z,90.56
2022-11-09T14:58:36.397Z,94.21
2022-11-09T15:01:24.677Z,97.17
2022-11-09T15:04:14.366Z,96.77
2022-11-09T15:07:05.298Z,93.33
2022-11-09T15:09:55.925Z,93.25
2022-11-09T15:12:49.063Z,94.28
2022-11-09T15:15:36.469Z,90.61
2022-11-09T15:18:33.590Z,92.38
2022-11-09T15:21:34.160Z,89.50
2022-11-09T15:24:21.335Z,91.17
2022-11-09T15:27:33.094Z,89.52
2022-11-09T15:30:32.897Z,89.69
2022-11-09T15:33:29.742Z,86.98
2022-11-09T15:36:35.041Z,94.75
2022-11-09T15:39:23.439Z,95.19
2022-11-09T15:42:12.118Z,93.06
2022-11-09T15:45:00.586Z,91.62
2022-11-09T15:47:53.221Z,93.09
2022-11-09T15:50:41.525Z,94.33
2022-11-09T15:53:28.586Z,94.90
2022-11-09T15:56:18.242Z,92.27
2022-11-09T15:59:05.067Z,94.25
2022-11-09T16:01:52.189Z,91.50
2022-11-09T16:04:40.431Z,94.47
2022-11-09T16:07:27.145Z,96.59
2022-11-09T16:10:15.100Z,96.55
2022-11-09T16:13:01.611Z,98.21
2022-11-09T16:15:48.338Z,97.35
2022-11-09T16:18:35.359Z,98.65
2022-11-09T16:21:23.823Z,98.36
2022-11-09T16:24:10.497Z,98.01
2022-11-09T16:26:58.074Z,99.52
2022-11-09T16:29:44.702Z,100.00
2022-11-09T16:32:31.820Z,99.33
2022-11-09T16:35:27.717Z,100.00
2022-11-09T16:38:16.598Z,100.00
2022-11-09T16:41:04.747Z,99.98
2022-11-09T16:43:53.983Z,99.32
2022-11-09T16:46:43.176Z,100.00
2022-11-09T16:49:29.937Z,100.00
2022-11-09T16:52:16.497Z,99.80
2022-11-09T16:55:05.135Z,100.00
2022-11-09T16:57:51.652Z,98.71
2022-11-09T17:01:03.845Z,100.00
2022-11-09T17:03:45.126Z,99.99
2022-11-09T17:06:33.766Z,100.00
2022-11-09T17:09:20.928Z,100.00
2022-11-09T17:12:08.902Z,100.00
2022-11-09T17:14:55.610Z,99.91
2022-11-09T17:17:42.091Z,100.00
2022-11-09T17:20:28.663Z,100.00
2022-11-09T17:23:18.173Z,100.00
2022-11-09T17:26:06.582Z,100.00
2022-11-09T17:28:54.603Z,100.00
2022-11-09T17:31:41.025Z,100.00
2022-11-09T17:34:27.595Z,100.00
2022-11-09T17:37:14.252Z,100.00
2022-11-09T17:40:00.856Z,100.00
2022-11-09T17:42:47.443Z,100.00
2022-11-09T17:45:35.997Z,100.00
2022-11-09T17:48:23.081Z,100.00
2022-11-09T17:51:10.439Z,100.00
2022-11-09T17:53:57.913Z,100.00
2022-11-09T17:56:44.487Z,100.00
2022-11-09T17:59:31.075Z,100.00
2022-11-09T18:02:19.444Z,100.00
2022-11-09T18:05:07.343Z,100.00
2022-11-09T18:07:53.739Z,100.00
2022-11-09T18:10:43.004Z,100.00
2022-11-09T18:13:29.905Z,100.00
2022-11-09T18:16:18.607Z,100.00
2022-11-09T18:19:07.098Z,100.00
2022-11-09T18:21:53.630Z,100.00
2022-11-09T18:24:40.306Z,100.00
2022-11-09T18:27:30.258Z,100.00
2022-11-09T18:30:18.317Z,100.00
2022-11-09T18:33:04.934Z,100.00
2022-11-09T18:35:58.353Z,100.00
2022-11-09T18:38:45.395Z,100.00
2022-11-09T18:41:32.098Z,100.00
2022-11-09T18:44:18.788Z,100.00
2022-11-09T18:47:08.541Z,100.00
2022-11-09T18:49:55.485Z,100.00
2022-11-09T18:52:43.301Z,100.00
2022-11-09T18:55:29.938Z,100.00
2022-11-09T18:58:17.337Z,100.00
2022-11-09T19:01:06.691Z,100.00
2022-11-09T19:03:59.017Z,100.00
2022-11-09T19:06:47.183Z,100.00
2022-11-09T19:09:38.959Z,100.00
2022-11-09T19:12:26.521Z,100.00
2022-11-09T19:15:14.108Z,100.00
2022-11-09T19:18:00.800Z,100.00
2022-11-09T19:20:47.931Z,100.00
2022-11-09T19:23:34.965Z,100.00
2022-11-09T19:26:23.971Z,100.00
2022-11-09T19:29:11.694Z,100.00
2022-11-09T19:31:58.218Z,100.00
2022-11-09T19:34:46.203Z,100.00
2022-11-09T19:37:32.860Z,100.00
2022-11-09T19:40:20.659Z,100.00
2022-11-09T19:43:08.701Z,100.00
2022-11-09T19:45:55.327Z,100.00
2022-11-09T19:48:45.355Z,100.00
2022-11-09T19:51:32.692Z,100.00
2022-11-09T19:54:19.500Z,100.00
2022-11-09T19:57:06.090Z,100.00
2022-11-09T19:59:54.374Z,100.00
2022-11-09T20:02:40.795Z,100.00
2022-11-09T20:05:30.234Z,100.00
2022-11-09T20:08:17.696Z,100.00
2022-11-09T20:11:07.773Z,100.00
2022-11-09T20:13:53.869Z,100.00
2022-11-09T20:16:42.586Z,100.00
2022-11-09T20:19:29.235Z,100.00
2022-11-09T20:22:16.558Z,100.00
2022-11-09T20:25:03.165Z,100.00
2022-11-09T20:27:49.691Z,100.00
2022-11-09T20:30:39.448Z,100.00
2022-11-09T20:33:27.292Z,100.00
2022-11-09T20:36:13.905Z,100.00
2022-11-09T20:39:00.478Z,100.00
2022-11-09T20:41:47.097Z,100.00
2022-11-09T20:44:33.635Z,100.00
2022-11-09T20:47:41.994Z,100.00
2022-11-09T20:50:28.713Z,100.00
2022-11-09T20:53:16.162Z,100.00
2022-11-09T20:56:03.080Z,100.00
2022-11-09T20:58:49.730Z,100.00
2022-11-09T21:01:36.645Z,100.00
2022-11-09T21:04:23.415Z,100.00
2022-11-09T21:07:11.840Z,100.00
2022-11-09T21:09:58.277Z,100.00
2022-11-09T21:12:44.926Z,100.00
2022-11-09T21:15:31.462Z,100.00
2022-11-09T21:18:18.401Z,100.00
2022-11-09T21:21:06.692Z,100.00
2022-11-09T21:24:11.982Z,100.00
2022-11-09T21:27:16.326Z,100.00
2022-11-09T21:30:03.155Z,100.00
2022-11-09T21:32:49.906Z,100.00
2022-11-09T21:35:36.471Z,100.00
2022-11-09T21:38:23.613Z,100.00
2022-11-09T21:41:29.273Z,100.00
2022-11-09T21:44:16.574Z,100.00
2022-11-09T21:47:03.841Z,100.00
2022-11-09T21:49:50.301Z,100.00
2022-11-09T21:52:37.124Z,100.00
2022-11-09T21:55:23.717Z,100.00
2022-11-09T21:58:11.945Z,100.00
2022-11-09T22:01:01.638Z,100.00
2022-11-09T22:03:48.865Z,100.00
2022-11-09T22:06:37.318Z,100.00
2022-11-09T22:09:24.278Z,100.00
2022-11-09T22:12:28.544Z,100.00
2022-11-09T22:15:34.099Z,100.00
2022-11-09T22:18:34.401Z,100.00
2022-11-09T22:21:22.467Z,100.00
2022-11-09T22:24:09.986Z,100.00
2022-11-09T22:26:56.661Z,100.00
2022-11-09T22:29:43.100Z,100.00
2022-11-09T22:32:31.328Z,100.00
2022-11-09T22:35:17.939Z,100.00
2022-11-09T22:38:04.516Z,100.00
2022-11-09T22:40:51.358Z,100.00
2022-11-09T22:43:39.510Z,100.00
2022-11-09T22:46:25.907Z,100.00
2022-11-09T22:49:13.715Z,100.00
2022-11-09T22:52:00.576Z,100.00
2022-11-09T22:54:50.100Z,100.00
2022-11-09T22:57:37.938Z,100.00
2022-11-09T23:00:25.070Z,100.00
2022-11-09T23:03:11.833Z,100.00
2022-11-09T23:06:04.204Z,100.00
2022-11-09T23:08:50.992Z,100.00
2022-11-09T23:11:37.729Z,100.00
2022-11-09T23:14:53.551Z,100.00
2022-11-09T23:17:58.017Z,100.00
2022-11-09T23:20:45.119Z,100.00
2022-11-09T23:23:33.046Z,100.00
2022-11-09T23:26:20.647Z,100.00
2022-11-09T23:29:07.392Z,100.00
2022-11-09T23:31:57.197Z,100.00
2022-11-09T23:34:44.103Z,100.00
2022-11-09T23:37:30.777Z,100.00
2022-11-09T23:40:19.010Z,100.00
2022-11-09T23:43:10.054Z,100.00
2022-11-09T23:45:58.283Z,100.00
2022-11-09T23:48:45.218Z,100.00
2022-11-09T23:51:32.411Z,100.00
2022-11-09T23:54:19.184Z,100.00
2022-11-09T23:57:07.480Z,100.00
2022-11-09T23:59:53.938Z,100.00
